sensor_id;sensor_type;location;lat;lon;timestamp;temperature;humidity
62589;DHT22;58504;48.770;9.148;2023-07-29T00:00:41;22.80;59.00
62589;DHT22;58504;48.770;9.148;2023-07-29T00:03:08;22.80;59.00
62589;DHT22;58504;48.770;9.148;2023-07-29T00:05:35;22.70;58.90
62589;DHT22;58504;48.770;9.148;2023-07-29T00:08:02;22.70;59.00
62589;DHT22;58504;48.770;9.148;2023-07-29T00:10:31;22.80;59.00
62589;DHT22;58504;48.770;9.148;2023-07-29T00:12:58;22.70;59.00
62589;DHT22;58504;48.770;9.148;2023-07-29T00:15:25;22.70;59.00
62589;DHT22;58504;48.770;9.148;2023-07-29T00:17:52;22.70;59.00
62589;DHT22;58504;48.770;9.148;2023-07-29T00:20:19;22.70;59.00
62589;DHT22;58504;48.770;9.148;2023-07-29T00:22:46;22.70;59.00
62589;DHT22;58504;48.770;9.148;2023-07-29T00:25:15;22.70;59.00
62589;DHT22;58504;48.770;9.148;2023-07-29T00:27:43;22.60;58.90
62589;DHT22;58504;48.770;9.148;2023-07-29T00:30:11;22.70;59.00
62589;DHT22;58504;48.770;9.148;2023-07-29T00:32:38;22.70;59.00
62589;DHT22;58504;48.770;9.148;2023-07-29T00:35:05;22.70;59.00
62589;DHT22;58504;48.770;9.148;2023-07-29T00:37:32;22.70;59.00
62589;DHT22;58504;48.770;9.148;2023-07-29T00:39:59;22.70;59.00
62589;DHT22;58504;48.770;9.148;2023-07-29T00:42:26;22.70;59.00
62589;DHT22;58504;48.770;9.148;2023-07-29T00:44:54;22.70;59.00
62589;DHT22;58504;48.770;9.148;2023-07-29T00:47:22;22.70;59.00
62589;DHT22;58504;48.770;9.148;2023-07-29T00:49:50;22.70;59.00
62589;DHT22;58504;48.770;9.148;2023-07-29T00:52:17;22.70;59.00
62589;DHT22;58504;48.770;9.148;2023-07-29T00:54:44;22.70;59.00
62589;DHT22;58504;48.770;9.148;2023-07-29T00:57:11;22.70;59.10
62589;DHT22;58504;48.770;9.148;2023-07-29T00:59:40;22.60;58.90
62589;DHT22;58504;48.770;9.148;2023-07-29T01:02:09;22.70;59.10
62589;DHT22;58504;48.770;9.148;2023-07-29T01:04:36;22.70;59.00
62589;DHT22;58504;48.770;9.148;2023-07-29T01:07:07;22.70;59.10
62589;DHT22;58504;48.770;9.148;2023-07-29T01:09:43;22.60;59.00
62589;DHT22;58504;48.770;9.148;2023-07-29T01:12:16;22.60;59.00
62589;DHT22;58504;48.770;9.148;2023-07-29T01:14:49;22.60;59.00
62589;DHT22;58504;48.770;9.148;2023-07-29T01:17:21;22.60;59.00
62589;DHT22;58504;48.770;9.148;2023-07-29T01:20:00;22.60;59.00
62589;DHT22;58504;48.770;9.148;2023-07-29T01:22:29;22.60;59.00
62589;DHT22;58504;48.770;9.148;2023-07-29T01:24:58;22.60;59.00
62589;DHT22;58504;48.770;9.148;2023-07-29T01:27:25;22.60;59.00
62589;DHT22;58504;48.770;9.148;2023-07-29T01:29:52;22.60;59.00
62589;DHT22;58504;48.770;9.148;2023-07-29T01:32:24;22.60;59.00
62589;DHT22;58504;48.770;9.148;2023-07-29T01:34:57;22.60;59.00
62589;DHT22;58504;48.770;9.148;2023-07-29T01:37:27;22.60;59.00
62589;DHT22;58504;48.770;9.148;2023-07-29T01:39:59;22.60;59.00
62589;DHT22;58504;48.770;9.148;2023-07-29T01:42:27;22.60;59.00
62589;DHT22;58504;48.770;9.148;2023-07-29T01:44:53;22.60;59.00
62589;DHT22;58504;48.770;9.148;2023-07-29T01:47:20;22.60;59.00
62589;DHT22;58504;48.770;9.148;2023-07-29T01:49:48;22.60;59.00
62589;DHT22;58504;48.770;9.148;2023-07-29T01:52:15;22.60;59.00
62589;DHT22;58504;48.770;9.148;2023-07-29T01:54:41;22.60;59.00
62589;DHT22;58504;48.770;9.148;2023-07-29T01:57:09;22.50;58.90
62589;DHT22;58504;48.770;9.148;2023-07-29T01:59:36;22.60;59.00
62589;DHT22;58504;48.770;9.148;2023-07-29T02:02:03;22.50;58.90
62589;DHT22;58504;48.770;9.148;2023-07-29T02:04:30;22.60;59.00
62589;DHT22;58504;48.770;9.148;2023-07-29T02:06:57;22.50;58.90
62589;DHT22;58504;48.770;9.148;2023-07-29T02:09:23;22.50;58.90
62589;DHT22;58504;48.770;9.148;2023-07-29T02:11:51;22.50;58.90
62589;DHT22;58504;48.770;9.148;2023-07-29T02:14:19;22.50;58.90
62589;DHT22;58504;48.770;9.148;2023-07-29T02:16:46;22.50;58.90
62589;DHT22;58504;48.770;9.148;2023-07-29T02:19:13;22.50;59.50
62589;DHT22;58504;48.770;9.148;2023-07-29T02:21:40;22.50;58.90
62589;DHT22;58504;48.770;9.148;2023-07-29T02:24:06;22.50;58.90
62589;DHT22;58504;48.770;9.148;2023-07-29T02:26:33;22.50;58.90
62589;DHT22;58504;48.770;9.148;2023-07-29T02:29:01;22.60;59.00
62589;DHT22;58504;48.770;9.148;2023-07-29T02:31:29;22.50;58.90
62589;DHT22;58504;48.770;9.148;2023-07-29T02:33:56;22.50;58.90
62589;DHT22;58504;48.770;9.148;2023-07-29T02:36:23;22.50;59.00
62589;DHT22;58504;48.770;9.148;2023-07-29T02:38:50;22.50;58.90
62589;DHT22;58504;48.770;9.148;2023-07-29T02:41:17;22.50;59.00
62589;DHT22;58504;48.770;9.148;2023-07-29T02:43:48;22.50;59.00
62589;DHT22;58504;48.770;9.148;2023-07-29T02:46:15;22.50;59.00
62589;DHT22;58504;48.770;9.148;2023-07-29T02:48:44;22.50;59.00
62589;DHT22;58504;48.770;9.148;2023-07-29T02:51:11;22.50;59.00
62589;DHT22;58504;48.770;9.148;2023-07-29T02:53:38;22.50;59.00
62589;DHT22;58504;48.770;9.148;2023-07-29T02:56:05;22.50;58.90
62589;DHT22;58504;48.770;9.148;2023-07-29T02:58:35;22.50;59.00
62589;DHT22;58504;48.770;9.148;2023-07-29T03:01:02;22.50;59.00
62589;DHT22;58504;48.770;9.148;2023-07-29T03:03:29;22.50;59.00
62589;DHT22;58504;48.770;9.148;2023-07-29T03:06:03;22.50;59.00
62589;DHT22;58504;48.770;9.148;2023-07-29T03:08:30;22.50;59.00
62589;DHT22;58504;48.770;9.148;2023-07-29T03:10:57;22.50;59.00
62589;DHT22;58504;48.770;9.148;2023-07-29T03:13:24;22.50;59.00
62589;DHT22;58504;48.770;9.148;2023-07-29T03:15:51;22.50;59.00
62589;DHT22;58504;48.770;9.148;2023-07-29T03:18:18;22.50;59.00
62589;DHT22;58504;48.770;9.148;2023-07-29T03:20:45;22.50;59.00
62589;DHT22;58504;48.770;9.148;2023-07-29T03:23:13;22.50;59.00
62589;DHT22;58504;48.770;9.148;2023-07-29T03:25:40;22.40;58.90
62589;DHT22;58504;48.770;9.148;2023-07-29T03:28:06;22.50;59.00
62589;DHT22;58504;48.770;9.148;2023-07-29T03:30:33;22.40;58.90
62589;DHT22;58504;48.770;9.148;2023-07-29T03:33:00;22.40;58.90
62589;DHT22;58504;48.770;9.148;2023-07-29T03:35:26;22.50;58.90
62589;DHT22;58504;48.770;9.148;2023-07-29T03:37:53;22.40;58.90
62589;DHT22;58504;48.770;9.148;2023-07-29T03:40:21;22.50;58.90
62589;DHT22;58504;48.770;9.148;2023-07-29T03:42:48;22.40;58.90
62589;DHT22;58504;48.770;9.148;2023-07-29T03:45:15;22.40;58.90
62589;DHT22;58504;48.770;9.148;2023-07-29T03:47:42;22.50;59.00
62589;DHT22;58504;48.770;9.148;2023-07-29T03:50:09;22.40;58.90
62589;DHT22;58504;48.770;9.148;2023-07-29T03:52:36;22.50;58.90
62589;DHT22;58504;48.770;9.148;2023-07-29T03:55:03;22.40;58.90
62589;DHT22;58504;48.770;9.148;2023-07-29T03:57:31;22.40;58.90
62589;DHT22;58504;48.770;9.148;2023-07-29T03:59:58;22.40;58.90
62589;DHT22;58504;48.770;9.148;2023-07-29T04:02:25;22.40;59.20
62589;DHT22;58504;48.770;9.148;2023-07-29T04:04:52;22.50;58.90
62589;DHT22;58504;48.770;9.148;2023-07-29T04:07:19;22.40;58.90
62589;DHT22;58504;48.770;9.148;2023-07-29T04:09:46;22.40;58.90
62589;DHT22;58504;48.770;9.148;2023-07-29T04:12:13;22.40;58.80
62589;DHT22;58504;48.770;9.148;2023-07-29T04:14:41;22.40;58.90
62589;DHT22;58504;48.770;9.148;2023-07-29T04:17:08;22.40;58.80
62589;DHT22;58504;48.770;9.148;2023-07-29T04:19:34;22.40;58.90
62589;DHT22;58504;48.770;9.148;2023-07-29T04:22:01;22.40;58.80
62589;DHT22;58504;48.770;9.148;2023-07-29T04:24:28;22.40;58.90
62589;DHT22;58504;48.770;9.148;2023-07-29T04:26:55;22.50;58.90
62589;DHT22;58504;48.770;9.148;2023-07-29T04:29:22;22.40;58.90
62589;DHT22;58504;48.770;9.148;2023-07-29T04:31:50;22.40;58.80
62589;DHT22;58504;48.770;9.148;2023-07-29T04:34:17;22.40;58.80
62589;DHT22;58504;48.770;9.148;2023-07-29T04:36:44;22.40;58.90
62589;DHT22;58504;48.770;9.148;2023-07-29T04:39:11;22.40;58.90
62589;DHT22;58504;48.770;9.148;2023-07-29T04:41:38;22.40;58.90
62589;DHT22;58504;48.770;9.148;2023-07-29T04:44:04;22.40;58.90
62589;DHT22;58504;48.770;9.148;2023-07-29T04:46:31;22.40;58.90
62589;DHT22;58504;48.770;9.148;2023-07-29T04:48:59;22.40;58.90
62589;DHT22;58504;48.770;9.148;2023-07-29T04:51:26;22.40;58.90
62589;DHT22;58504;48.770;9.148;2023-07-29T04:53:53;22.40;58.90
62589;DHT22;58504;48.770;9.148;2023-07-29T04:56:20;22.40;59.20
62589;DHT22;58504;48.770;9.148;2023-07-29T04:58:46;22.40;59.00
62589;DHT22;58504;48.770;9.148;2023-07-29T05:01:13;22.40;59.00
62589;DHT22;58504;48.770;9.148;2023-07-29T05:03:40;22.40;59.10
62589;DHT22;58504;48.770;9.148;2023-07-29T05:06:08;22.40;59.10
62589;DHT22;58504;48.770;9.148;2023-07-29T05:08:36;22.40;59.20
62589;DHT22;58504;48.770;9.148;2023-07-29T05:11:03;22.40;59.10
62589;DHT22;58504;48.770;9.148;2023-07-29T05:13:29;22.40;59.10
62589;DHT22;58504;48.770;9.148;2023-07-29T05:15:56;22.40;59.10
62589;DHT22;58504;48.770;9.148;2023-07-29T05:18:23;22.40;59.20
62589;DHT22;58504;48.770;9.148;2023-07-29T05:20:50;22.40;59.10
62589;DHT22;58504;48.770;9.148;2023-07-29T05:23:18;22.40;59.10
62589;DHT22;58504;48.770;9.148;2023-07-29T05:25:44;22.40;59.10
62589;DHT22;58504;48.770;9.148;2023-07-29T05:28:11;22.50;59.10
62589;DHT22;58504;48.770;9.148;2023-07-29T05:30:38;22.50;59.10
62589;DHT22;58504;48.770;9.148;2023-07-29T05:33:05;22.50;59.10
62589;DHT22;58504;48.770;9.148;2023-07-29T05:35:33;22.50;59.00
62589;DHT22;58504;48.770;9.148;2023-07-29T05:38:00;22.50;59.00
62589;DHT22;58504;48.770;9.148;2023-07-29T05:40:28;22.50;59.00
62589;DHT22;58504;48.770;9.148;2023-07-29T05:42:54;22.50;58.90
62589;DHT22;58504;48.770;9.148;2023-07-29T05:45:21;22.50;58.90
62589;DHT22;58504;48.770;9.148;2023-07-29T05:47:48;22.60;58.80
62589;DHT22;58504;48.770;9.148;2023-07-29T05:50:15;22.60;58.70
62589;DHT22;58504;48.770;9.148;2023-07-29T05:52:42;22.60;58.70
62589;DHT22;58504;48.770;9.148;2023-07-29T05:55:09;22.70;58.70
62589;DHT22;58504;48.770;9.148;2023-07-29T05:57:37;22.70;58.70
62589;DHT22;58504;48.770;9.148;2023-07-29T06:00:05;22.70;58.70
62589;DHT22;58504;48.770;9.148;2023-07-29T06:02:32;22.70;58.60
62589;DHT22;58504;48.770;9.148;2023-07-29T06:04:58;22.70;58.50
62589;DHT22;58504;48.770;9.148;2023-07-29T06:07:26;22.80;58.40
62589;DHT22;58504;48.770;9.148;2023-07-29T06:09:55;22.80;58.30
62589;DHT22;58504;48.770;9.148;2023-07-29T06:12:23;22.90;58.30
62589;DHT22;58504;48.770;9.148;2023-07-29T06:14:51;22.90;58.10
62589;DHT22;58504;48.770;9.148;2023-07-29T06:17:18;22.90;58.60
62589;DHT22;58504;48.770;9.148;2023-07-29T06:19:44;23.00;58.00
62589;DHT22;58504;48.770;9.148;2023-07-29T06:22:11;23.00;57.90
62589;DHT22;58504;48.770;9.148;2023-07-29T06:24:38;23.00;57.90
62589;DHT22;58504;48.770;9.148;2023-07-29T06:27:05;23.00;57.80
62589;DHT22;58504;48.770;9.148;2023-07-29T06:29:32;23.10;57.80
62589;DHT22;58504;48.770;9.148;2023-07-29T06:32:01;23.10;57.80
62589;DHT22;58504;48.770;9.148;2023-07-29T06:34:27;23.10;57.80
62589;DHT22;58504;48.770;9.148;2023-07-29T06:36:54;23.00;57.70
62589;DHT22;58504;48.770;9.148;2023-07-29T06:39:21;23.00;57.80
62589;DHT22;58504;48.770;9.148;2023-07-29T06:41:48;23.00;57.90
62589;DHT22;58504;48.770;9.148;2023-07-29T06:44:15;22.90;58.00
62589;DHT22;58504;48.770;9.148;2023-07-29T06:46:41;22.90;58.10
62589;DHT22;58504;48.770;9.148;2023-07-29T06:49:09;22.90;58.20
62589;DHT22;58504;48.770;9.148;2023-07-29T06:51:36;22.90;58.30
62589;DHT22;58504;48.770;9.148;2023-07-29T06:54:03;22.80;58.30
62589;DHT22;58504;48.770;9.148;2023-07-29T06:56:30;22.80;58.40
62589;DHT22;58504;48.770;9.148;2023-07-29T06:58:57;22.80;58.50
62589;DHT22;58504;48.770;9.148;2023-07-29T07:01:23;22.80;58.60
62589;DHT22;58504;48.770;9.148;2023-07-29T07:03:50;22.70;58.60
62589;DHT22;58504;48.770;9.148;2023-07-29T07:06:21;22.70;58.70
62589;DHT22;58504;48.770;9.148;2023-07-29T07:08:50;22.70;58.90
62589;DHT22;58504;48.770;9.148;2023-07-29T07:11:17;22.70;59.00
62589;DHT22;58504;48.770;9.148;2023-07-29T07:13:44;22.70;59.00
62589;DHT22;58504;48.770;9.148;2023-07-29T07:16:11;22.60;59.10
62589;DHT22;58504;48.770;9.148;2023-07-29T07:18:38;22.60;59.20
62589;DHT22;58504;48.770;9.148;2023-07-29T07:21:04;22.60;59.10
62589;DHT22;58504;48.770;9.148;2023-07-29T07:23:33;22.60;59.20
62589;DHT22;58504;48.770;9.148;2023-07-29T07:25:59;22.60;59.20
62589;DHT22;58504;48.770;9.148;2023-07-29T07:28:26;22.60;59.20
62589;DHT22;58504;48.770;9.148;2023-07-29T07:30:53;22.60;59.10
62589;DHT22;58504;48.770;9.148;2023-07-29T07:33:21;22.60;59.20
62589;DHT22;58504;48.770;9.148;2023-07-29T07:35:48;22.70;59.30
62589;DHT22;58504;48.770;9.148;2023-07-29T07:38:15;22.70;59.30
62589;DHT22;58504;48.770;9.148;2023-07-29T07:40:43;22.70;59.30
62589;DHT22;58504;48.770;9.148;2023-07-29T07:43:18;22.70;59.30
62589;DHT22;58504;48.770;9.148;2023-07-29T07:45:45;22.70;59.40
62589;DHT22;58504;48.770;9.148;2023-07-29T07:48:12;22.70;59.40
62589;DHT22;58504;48.770;9.148;2023-07-29T07:50:39;22.70;59.40
62589;DHT22;58504;48.770;9.148;2023-07-29T07:53:06;22.80;59.50
62589;DHT22;58504;48.770;9.148;2023-07-29T07:55:32;22.80;60.10
62589;DHT22;58504;48.770;9.148;2023-07-29T07:58:00;22.90;59.50
62589;DHT22;58504;48.770;9.148;2023-07-29T08:00:27;22.80;59.40
62589;DHT22;58504;48.770;9.148;2023-07-29T08:02:54;22.80;59.40
62589;DHT22;58504;48.770;9.148;2023-07-29T08:05:21;23.00;59.50
62589;DHT22;58504;48.770;9.148;2023-07-29T08:07:48;23.40;59.10
62589;DHT22;58504;48.770;9.148;2023-07-29T08:10:15;23.30;58.80
62589;DHT22;58504;48.770;9.148;2023-07-29T08:12:41;23.30;58.90
62589;DHT22;58504;48.770;9.148;2023-07-29T08:15:09;23.30;59.20
62589;DHT22;58504;48.770;9.148;2023-07-29T08:17:36;23.30;59.10
62589;DHT22;58504;48.770;9.148;2023-07-29T08:20:04;23.40;59.20
62589;DHT22;58504;48.770;9.148;2023-07-29T08:22:31;23.40;59.10
62589;DHT22;58504;48.770;9.148;2023-07-29T08:24:58;23.40;59.30
62589;DHT22;58504;48.770;9.148;2023-07-29T08:27:24;23.40;59.30
62589;DHT22;58504;48.770;9.148;2023-07-29T08:29:51;23.40;59.30
62589;DHT22;58504;48.770;9.148;2023-07-29T08:32:21;23.40;59.40
62589;DHT22;58504;48.770;9.148;2023-07-29T08:34:48;23.40;59.60
62589;DHT22;58504;48.770;9.148;2023-07-29T08:37:15;23.40;59.70
62589;DHT22;58504;48.770;9.148;2023-07-29T08:39:41;23.40;59.70
62589;DHT22;58504;48.770;9.148;2023-07-29T08:42:11;23.40;59.70
62589;DHT22;58504;48.770;9.148;2023-07-29T08:44:41;23.40;59.70
62589;DHT22;58504;48.770;9.148;2023-07-29T08:47:07;23.40;59.60
62589;DHT22;58504;48.770;9.148;2023-07-29T08:49:36;23.60;59.60
62589;DHT22;58504;48.770;9.148;2023-07-29T08:52:04;23.80;59.20
62589;DHT22;58504;48.770;9.148;2023-07-29T08:54:31;24.00;58.80
62589;DHT22;58504;48.770;9.148;2023-07-29T08:56:58;24.20;58.40
62589;DHT22;58504;48.770;9.148;2023-07-29T08:59:26;25.10;57.70
62589;DHT22;58504;48.770;9.148;2023-07-29T09:01:55;25.20;56.20
62589;DHT22;58504;48.770;9.148;2023-07-29T09:04:23;25.50;55.90
62589;DHT22;58504;48.770;9.148;2023-07-29T09:06:52;25.60;55.20
62589;DHT22;58504;48.770;9.148;2023-07-29T09:09:20;25.50;55.10
62589;DHT22;58504;48.770;9.148;2023-07-29T09:11:47;25.30;55.40
62589;DHT22;58504;48.770;9.148;2023-07-29T09:14:15;25.10;56.60
62589;DHT22;58504;48.770;9.148;2023-07-29T09:16:42;24.90;56.40
62589;DHT22;58504;48.770;9.148;2023-07-29T09:19:09;24.70;56.70
62589;DHT22;58504;48.770;9.148;2023-07-29T09:21:38;24.70;57.00
62589;DHT22;58504;48.770;9.148;2023-07-29T09:24:07;24.90;56.90
62589;DHT22;58504;48.770;9.148;2023-07-29T09:26:34;25.00;56.80
62589;DHT22;58504;48.770;9.148;2023-07-29T09:29:01;25.10;56.30
62589;DHT22;58504;48.770;9.148;2023-07-29T09:31:29;25.40;56.00
62589;DHT22;58504;48.770;9.148;2023-07-29T09:33:57;25.60;55.40
62589;DHT22;58504;48.770;9.148;2023-07-29T09:36:24;25.70;55.10
62589;DHT22;58504;48.770;9.148;2023-07-29T09:38:53;25.60;54.90
62589;DHT22;58504;48.770;9.148;2023-07-29T09:41:23;25.60;55.00
62589;DHT22;58504;48.770;9.148;2023-07-29T09:43:55;25.50;55.30
62589;DHT22;58504;48.770;9.148;2023-07-29T09:46:23;25.40;55.50
62589;DHT22;58504;48.770;9.148;2023-07-29T09:48:53;25.40;55.70
62589;DHT22;58504;48.770;9.148;2023-07-29T09:51:21;25.30;55.80
62589;DHT22;58504;48.770;9.148;2023-07-29T09:53:50;25.50;55.80
62589;DHT22;58504;48.770;9.148;2023-07-29T09:56:17;25.60;55.80
62589;DHT22;58504;48.770;9.148;2023-07-29T09:58:45;25.50;55.80
62589;DHT22;58504;48.770;9.148;2023-07-29T10:01:13;26.00;55.70
62589;DHT22;58504;48.770;9.148;2023-07-29T10:03:40;26.80;54.50
62589;DHT22;58504;48.770;9.148;2023-07-29T10:06:07;26.90;53.50
62589;DHT22;58504;48.770;9.148;2023-07-29T10:08:34;26.90;53.30
62589;DHT22;58504;48.770;9.148;2023-07-29T10:11:05;27.10;52.90
62589;DHT22;58504;48.770;9.148;2023-07-29T10:13:34;27.30;52.60
62589;DHT22;58504;48.770;9.148;2023-07-29T10:16:03;27.60;51.80
62589;DHT22;58504;48.770;9.148;2023-07-29T10:18:31;27.70;51.80
62589;DHT22;58504;48.770;9.148;2023-07-29T10:20:59;27.60;51.60
62589;DHT22;58504;48.770;9.148;2023-07-29T10:23:27;27.50;51.80
62589;DHT22;58504;48.770;9.148;2023-07-29T10:25:59;27.40;52.10
62589;DHT22;58504;48.770;9.148;2023-07-29T10:28:26;27.20;52.30
62589;DHT22;58504;48.770;9.148;2023-07-29T10:30:56;27.10;52.70
62589;DHT22;58504;48.770;9.148;2023-07-29T10:33:25;26.90;53.00
62589;DHT22;58504;48.770;9.148;2023-07-29T10:35:53;26.60;53.90
62589;DHT22;58504;48.770;9.148;2023-07-29T10:38:22;26.40;53.80
62589;DHT22;58504;48.770;9.148;2023-07-29T10:40:52;26.20;54.20
62589;DHT22;58504;48.770;9.148;2023-07-29T10:43:25;26.10;54.50
62589;DHT22;58504;48.770;9.148;2023-07-29T10:45:52;26.00;55.00
62589;DHT22;58504;48.770;9.148;2023-07-29T10:48:42;25.90;55.40
62589;DHT22;58504;48.770;9.148;2023-07-29T10:51:29;25.70;55.70
62589;DHT22;58504;48.770;9.148;2023-07-29T10:53:58;25.60;56.00
62589;DHT22;58504;48.770;9.148;2023-07-29T10:56:27;25.60;56.50
62589;DHT22;58504;48.770;9.148;2023-07-29T10:58:56;25.60;56.40
62589;DHT22;58504;48.770;9.148;2023-07-29T11:01:30;25.50;56.80
62589;DHT22;58504;48.770;9.148;2023-07-29T11:04:27;25.50;56.80
62589;DHT22;58504;48.770;9.148;2023-07-29T11:07:20;25.50;56.90
62589;DHT22;58504;48.770;9.148;2023-07-29T11:09:57;25.50;57.40
62589;DHT22;58504;48.770;9.148;2023-07-29T11:12:48;25.50;57.10
62589;DHT22;58504;48.770;9.148;2023-07-29T11:15:21;25.40;57.00
62589;DHT22;58504;48.770;9.148;2023-07-29T11:17:50;25.40;57.10
62589;DHT22;58504;48.770;9.148;2023-07-29T11:20:19;25.30;57.20
62589;DHT22;58504;48.770;9.148;2023-07-29T11:22:47;25.30;57.30
62589;DHT22;58504;48.770;9.148;2023-07-29T11:25:16;25.30;57.40
62589;DHT22;58504;48.770;9.148;2023-07-29T11:27:43;25.20;57.50
62589;DHT22;58504;48.770;9.148;2023-07-29T11:30:11;25.20;57.50
62589;DHT22;58504;48.770;9.148;2023-07-29T11:32:39;25.10;57.70
62589;DHT22;58504;48.770;9.148;2023-07-29T11:37:37;24.90;58.00
62589;DHT22;58504;48.770;9.148;2023-07-29T11:40:05;24.90;58.30
62589;DHT22;58504;48.770;9.148;2023-07-29T11:42:33;24.90;58.30
62589;DHT22;58504;48.770;9.148;2023-07-29T11:45:01;24.90;58.30
62589;DHT22;58504;48.770;9.148;2023-07-29T11:47:29;24.90;58.30
62589;DHT22;58504;48.770;9.148;2023-07-29T11:49:58;24.90;58.40
62589;DHT22;58504;48.770;9.148;2023-07-29T11:52:26;24.90;58.30
62589;DHT22;58504;48.770;9.148;2023-07-29T11:54:55;24.90;58.20
62589;DHT22;58504;48.770;9.148;2023-07-29T11:57:22;24.90;58.10
62589;DHT22;58504;48.770;9.148;2023-07-29T11:59:49;25.00;58.10
62589;DHT22;58504;48.770;9.148;2023-07-29T12:02:17;25.00;58.50
62589;DHT22;58504;48.770;9.148;2023-07-29T12:04:47;25.00;57.80
62589;DHT22;58504;48.770;9.148;2023-07-29T12:07:14;25.10;57.90
62589;DHT22;58504;48.770;9.148;2023-07-29T12:09:42;25.10;57.70
62589;DHT22;58504;48.770;9.148;2023-07-29T12:12:11;25.10;57.50
62589;DHT22;58504;48.770;9.148;2023-07-29T12:14:38;25.10;57.40
62589;DHT22;58504;48.770;9.148;2023-07-29T12:17:05;25.10;57.20
62589;DHT22;58504;48.770;9.148;2023-07-29T12:19:33;25.10;57.20
62589;DHT22;58504;48.770;9.148;2023-07-29T12:22:00;25.10;57.30
62589;DHT22;58504;48.770;9.148;2023-07-29T12:24:29;25.10;57.40
62589;DHT22;58504;48.770;9.148;2023-07-29T12:26:56;25.10;57.40
62589;DHT22;58504;48.770;9.148;2023-07-29T12:29:25;25.10;57.20
62589;DHT22;58504;48.770;9.148;2023-07-29T12:31:57;25.10;57.30
62589;DHT22;58504;48.770;9.148;2023-07-29T12:34:26;25.10;57.30
62589;DHT22;58504;48.770;9.148;2023-07-29T12:36:53;25.10;57.40
62589;DHT22;58504;48.770;9.148;2023-07-29T12:39:22;25.10;57.40
62589;DHT22;58504;48.770;9.148;2023-07-29T12:41:51;25.10;57.40
62589;DHT22;58504;48.770;9.148;2023-07-29T12:44:18;25.10;57.40
62589;DHT22;58504;48.770;9.148;2023-07-29T12:46:46;25.10;57.50
62589;DHT22;58504;48.770;9.148;2023-07-29T12:49:13;25.10;57.50
62589;DHT22;58504;48.770;9.148;2023-07-29T12:51:40;25.10;57.60
62589;DHT22;58504;48.770;9.148;2023-07-29T12:54:07;25.10;57.50
62589;DHT22;58504;48.770;9.148;2023-07-29T12:56:34;25.10;57.70
62589;DHT22;58504;48.770;9.148;2023-07-29T12:59:01;25.10;57.90
62589;DHT22;58504;48.770;9.148;2023-07-29T13:01:28;25.10;57.70
62589;DHT22;58504;48.770;9.148;2023-07-29T13:03:56;25.20;57.60
62589;DHT22;58504;48.770;9.148;2023-07-29T13:06:23;25.10;57.60
62589;DHT22;58504;48.770;9.148;2023-07-29T13:08:50;25.10;57.60
62589;DHT22;58504;48.770;9.148;2023-07-29T13:11:17;25.10;57.50
62589;DHT22;58504;48.770;9.148;2023-07-29T13:13:44;25.20;57.50
62589;DHT22;58504;48.770;9.148;2023-07-29T13:16:11;25.20;57.50
62589;DHT22;58504;48.770;9.148;2023-07-29T13:18:38;25.20;57.40
62589;DHT22;58504;48.770;9.148;2023-07-29T13:21:06;25.20;57.30
62589;DHT22;58504;48.770;9.148;2023-07-29T13:23:33;25.30;57.30
62589;DHT22;58504;48.770;9.148;2023-07-29T13:25:59;25.30;57.10
62589;DHT22;58504;48.770;9.148;2023-07-29T13:28:26;25.30;56.90
62589;DHT22;58504;48.770;9.148;2023-07-29T13:30:53;25.30;56.90
62589;DHT22;58504;48.770;9.148;2023-07-29T13:33:20;25.40;56.90
62589;DHT22;58504;48.770;9.148;2023-07-29T13:35:46;25.40;56.90
62589;DHT22;58504;48.770;9.148;2023-07-29T13:38:14;25.30;56.80
62589;DHT22;58504;48.770;9.148;2023-07-29T13:40:41;25.30;56.80
62589;DHT22;58504;48.770;9.148;2023-07-29T13:43:08;25.30;56.70
62589;DHT22;58504;48.770;9.148;2023-07-29T13:45:35;25.20;56.70
62589;DHT22;58504;48.770;9.148;2023-07-29T13:48:02;25.20;56.80
62589;DHT22;58504;48.770;9.148;2023-07-29T13:50:29;25.20;56.80
62589;DHT22;58504;48.770;9.148;2023-07-29T13:52:55;25.10;56.90
62589;DHT22;58504;48.770;9.148;2023-07-29T13:55:23;25.10;56.90
62589;DHT22;58504;48.770;9.148;2023-07-29T13:57:51;25.10;57.00
62589;DHT22;58504;48.770;9.148;2023-07-29T14:00:18;25.00;57.00
62589;DHT22;58504;48.770;9.148;2023-07-29T14:02:45;25.00;57.10
62589;DHT22;58504;48.770;9.148;2023-07-29T14:05:12;25.00;57.10
62589;DHT22;58504;48.770;9.148;2023-07-29T14:07:39;25.00;57.10
62589;DHT22;58504;48.770;9.148;2023-07-29T14:10:07;25.00;57.20
62589;DHT22;58504;48.770;9.148;2023-07-29T14:12:35;24.90;57.10
62589;DHT22;58504;48.770;9.148;2023-07-29T14:15:02;24.90;57.20
62589;DHT22;58504;48.770;9.148;2023-07-29T14:17:29;24.90;57.30
62589;DHT22;58504;48.770;9.148;2023-07-29T14:19:56;24.90;57.40
62589;DHT22;58504;48.770;9.148;2023-07-29T14:22:23;24.80;57.30
62589;DHT22;58504;48.770;9.148;2023-07-29T14:24:49;24.80;57.30
62589;DHT22;58504;48.770;9.148;2023-07-29T14:27:16;24.80;57.40
62589;DHT22;58504;48.770;9.148;2023-07-29T14:29:44;24.80;57.50
62589;DHT22;58504;48.770;9.148;2023-07-29T14:32:11;24.70;57.50
62589;DHT22;58504;48.770;9.148;2023-07-29T14:34:38;24.70;57.70
62589;DHT22;58504;48.770;9.148;2023-07-29T14:37:05;24.60;57.80
62589;DHT22;58504;48.770;9.148;2023-07-29T14:39:32;24.50;57.90
62589;DHT22;58504;48.770;9.148;2023-07-29T14:41:59;24.50;58.00
62589;DHT22;58504;48.770;9.148;2023-07-29T14:44:26;24.50;58.00
62589;DHT22;58504;48.770;9.148;2023-07-29T14:46:54;24.40;58.00
62589;DHT22;58504;48.770;9.148;2023-07-29T14:49:21;24.40;58.10
62589;DHT22;58504;48.770;9.148;2023-07-29T14:51:48;24.40;58.20
62589;DHT22;58504;48.770;9.148;2023-07-29T14:54:15;24.30;58.20
62589;DHT22;58504;48.770;9.148;2023-07-29T14:56:41;24.30;58.20
62589;DHT22;58504;48.770;9.148;2023-07-29T14:59:08;24.30;58.30
62589;DHT22;58504;48.770;9.148;2023-07-29T15:01:35;24.30;58.40
62589;DHT22;58504;48.770;9.148;2023-07-29T15:04:03;24.30;58.40
62589;DHT22;58504;48.770;9.148;2023-07-29T15:06:30;24.30;58.20
62589;DHT22;58504;48.770;9.148;2023-07-29T15:08:57;24.30;58.70
62589;DHT22;58504;48.770;9.148;2023-07-29T15:11:24;24.30;58.20
62589;DHT22;58504;48.770;9.148;2023-07-29T15:13:51;24.30;58.20
62589;DHT22;58504;48.770;9.148;2023-07-29T15:16:17;24.30;58.20
62589;DHT22;58504;48.770;9.148;2023-07-29T15:18:44;24.30;58.20
62589;DHT22;58504;48.770;9.148;2023-07-29T15:21:12;24.30;58.20
62589;DHT22;58504;48.770;9.148;2023-07-29T15:23:39;24.20;58.20
62589;DHT22;58504;48.770;9.148;2023-07-29T15:26:06;24.20;58.20
62589;DHT22;58504;48.770;9.148;2023-07-29T15:28:32;24.20;58.20
62589;DHT22;58504;48.770;9.148;2023-07-29T15:30:59;24.20;58.20
62589;DHT22;58504;48.770;9.148;2023-07-29T15:33:26;24.20;58.20
62589;DHT22;58504;48.770;9.148;2023-07-29T15:35:53;24.20;58.20